createdAt,value
2018-01-29T00:00:03.211Z,5.51
2018-01-29T00:00:07.003Z,5.52
2018-01-29T00:00:11.108Z,5.53
2018-01-29T00:00:14.896Z,5.53
2018-01-29T00:00:18.687Z,5.53
2018-01-29T00:00:22.594Z,5.53
2018-01-29T00:00:26.491Z,5.51
2018-01-29T00:00:30.389Z,5.53
2018-01-29T00:00:34.280Z,5.53
2018-01-29T00:00:38.278Z,5.52
2018-01-29T00:00:42.082Z,5.53
2018-01-29T00:00:46.195Z,5.53
2018-01-29T00:00:49.981Z,5.53
2018-01-29T00:00:53.982Z,5.53
2018-01-29T00:00:57.874Z,5.52
2018-01-29T00:01:01.767Z,5.53
2018-01-29T00:01:05.910Z,5.53
2018-01-29T00:01:10.121Z,5.53
2018-01-29T00:01:14.020Z,5.53
2018-01-29T00:01:17.912Z,5.53
2018-01-29T00:01:22.123Z,5.54
2018-01-29T00:01:26.286Z,5.53
2018-01-29T00:01:30.394Z,5.53
2018-01-29T00:01:34.287Z,5.53
2018-01-29T00:01:38.183Z,5.54
2018-01-29T00:01:41.975Z,5.54
2018-01-29T00:01:45.879Z,5.53
2018-01-29T00:01:49.877Z,5.54
2018-01-29T00:01:53.983Z,5.53
2018-01-29T00:01:57.982Z,5.54
2018-01-29T00:02:02.238Z,5.54
2018-01-29T00:02:06.351Z,5.54
2018-01-29T00:02:10.243Z,5.54
2018-01-29T00:02:14.236Z,5.54
2018-01-29T00:02:18.138Z,5.55
2018-01-29T00:02:21.927Z,5.54
2018-01-29T00:02:25.715Z,5.55
2018-01-29T00:02:29.713Z,5.54
2018-01-29T00:02:33.819Z,5.54
2018-01-29T00:02:37.818Z,5.56
2018-01-29T00:02:41.606Z,5.55
2018-01-29T00:02:45.397Z,5.54
2018-01-29T00:02:49.392Z,5.55
2018-01-29T00:02:53.177Z,5.55
2018-01-29T00:02:57.071Z,5.55
2018-01-29T00:03:00.963Z,5.56
2018-01-29T00:03:05.009Z,5.56
2018-01-29T00:03:09.005Z,5.55
2018-01-29T00:03:13.011Z,5.56
2018-01-29T00:03:16.803Z,5.56
2018-01-29T00:03:20.483Z,5.57
2018-01-29T00:03:24.373Z,5.57
2018-01-29T00:03:28.476Z,5.56
2018-01-29T00:03:32.579Z,5.57
2018-01-29T00:03:36.581Z,5.57
2018-01-29T00:03:40.367Z,5.57
2018-01-29T00:03:44.374Z,5.57
2018-01-29T00:03:48.476Z,5.57
2018-01-29T00:03:52.477Z,5.57
2018-01-29T00:03:56.584Z,5.57
2018-01-29T00:04:00.586Z,5.57
2018-01-29T00:04:04.641Z,5.57
2018-01-29T00:04:08.645Z,5.58
2018-01-29T00:04:12.964Z,5.58
2018-01-29T00:04:16.860Z,5.57
2018-01-29T00:04:21.070Z,5.58
2018-01-29T00:04:24.960Z,5.58
2018-01-29T00:04:28.968Z,5.58
2018-01-29T00:04:32.967Z,5.58
2018-01-29T00:04:36.790Z,5.58
2018-01-29T00:04:40.904Z,5.58
2018-01-29T00:04:44.904Z,5.58
2018-01-29T00:04:48.909Z,5.58
2018-01-29T00:04:52.596Z,5.59
2018-01-29T00:04:56.493Z,5.59
2018-01-29T00:05:00.385Z,5.59
2018-01-29T00:05:04.279Z,5.59
2018-01-29T00:05:07.967Z,5.59
2018-01-29T00:05:11.657Z,5.59
2018-01-29T00:05:15.662Z,5.59
2018-01-29T00:05:19.446Z,5.59
2018-01-29T00:05:23.237Z,5.6
2018-01-29T00:05:27.133Z,5.59
2018-01-29T00:05:31.347Z,5.6
2018-01-29T00:05:35.552Z,5.59
2018-01-29T00:05:39.652Z,5.6
2018-01-29T00:05:43.333Z,5.6
2018-01-29T00:05:47.118Z,5.6
2018-01-29T00:05:50.907Z,5.61
2018-01-29T00:05:54.696Z,5.6
2018-01-29T00:05:58.800Z,5.61
2018-01-29T00:06:02.692Z,5.61
2018-01-29T00:06:06.703Z,5.61
2018-01-29T00:06:10.594Z,5.61
2018-01-29T00:06:14.709Z,5.62
2018-01-29T00:06:18.603Z,5.62
2018-01-29T00:06:22.780Z,5.62
2018-01-29T00:06:27.069Z,5.61
2018-01-29T00:06:30.863Z,5.62
2018-01-29T00:06:34.752Z,5.62
2018-01-29T00:06:38.752Z,5.62
2018-01-29T00:06:42.539Z,5.62
2018-01-29T00:06:46.643Z,5.61
2018-01-29T00:06:50.545Z,5.63
2018-01-29T00:06:54.335Z,5.63
2018-01-29T00:06:58.241Z,5.63
2018-01-29T00:07:01.925Z,5.63
2018-01-29T00:07:05.714Z,5.63
2018-01-29T00:07:09.604Z,5.63
2018-01-29T00:07:13.496Z,5.63
2018-01-29T00:07:17.187Z,5.63
2018-01-29T00:07:21.296Z,5.63
2018-01-29T00:07:25.294Z,5.64
2018-01-29T00:07:29.294Z,5.63
2018-01-29T00:07:33.300Z,5.63
2018-01-29T00:07:37.199Z,5.64
2018-01-29T00:07:40.984Z,5.64
2018-01-29T00:07:44.873Z,5.65
2018-01-29T00:07:48.872Z,5.64
2018-01-29T00:07:52.769Z,5.64
2018-01-29T00:07:56.665Z,5.65
2018-01-29T00:08:00.454Z,5.64
2018-01-29T00:08:04.600Z,5.64
2018-01-29T00:08:08.709Z,5.65
2018-01-29T00:08:12.496Z,5.66
2018-01-29T00:08:16.291Z,5.65
2018-01-29T00:08:20.295Z,5.65
2018-01-29T00:08:24.250Z,5.65
2018-01-29T00:08:28.144Z,5.67
2018-01-29T00:08:32.039Z,5.67
2018-01-29T00:08:35.935Z,5.67
2018-01-29T00:08:39.828Z,5.67
2018-01-29T00:08:43.722Z,5.67
2018-01-29T00:08:47.933Z,5.66
2018-01-29T00:08:51.933Z,5.66
2018-01-29T00:08:55.940Z,5.67
2018-01-29T00:08:59.834Z,5.68
2018-01-29T00:09:03.934Z,5.67
2018-01-29T00:09:07.730Z,5.67
2018-01-29T00:09:11.628Z,5.68
2018-01-29T00:09:15.414Z,5.68
2018-01-29T00:09:19.201Z,5.69
2018-01-29T00:09:23.199Z,5.68
2018-01-29T00:09:27.198Z,5.69
2018-01-29T00:09:31.093Z,5.69
2018-01-29T00:09:34.988Z,5.69
2018-01-29T00:09:38.776Z,5.7
2018-01-29T00:09:42.670Z,5.7
2018-01-29T00:09:46.564Z,5.7
2018-01-29T00:09:50.364Z,5.7
2018-01-29T00:09:54.049Z,5.71
2018-01-29T00:09:58.047Z,5.71
2018-01-29T00:10:02.189Z,5.71
2018-01-29T00:10:06.188Z,5.71
2018-01-29T00:10:10.401Z,5.71
2018-01-29T00:10:14.399Z,5.71
2018-01-29T00:10:18.407Z,5.72
2018-01-29T00:10:22.187Z,5.72
2018-01-29T00:10:26.186Z,5.72
2018-01-29T00:10:30.082Z,5.73
2018-01-29T00:10:34.290Z,5.73
2018-01-29T00:10:38.515Z,5.72
2018-01-29T00:10:42.304Z,5.74
2018-01-29T00:10:46.099Z,5.74
2018-01-29T00:10:49.999Z,5.73
2018-01-29T00:10:53.787Z,5.73
2018-01-29T00:10:57.576Z,5.74
2018-01-29T00:11:01.366Z,5.74
2018-01-29T00:11:05.372Z,5.75
2018-01-29T00:11:09.378Z,5.75
2018-01-29T00:11:13.274Z,5.75
2018-01-29T00:11:17.170Z,5.75
2018-01-29T00:11:21.165Z,5.75
2018-01-29T00:11:25.165Z,5.76
2018-01-29T00:11:29.165Z,5.76
2018-01-29T00:11:32.848Z,5.76
2018-01-29T00:11:36.536Z,5.77
2018-01-29T00:11:40.544Z,5.77
2018-01-29T00:11:44.336Z,5.77
2018-01-29T00:11:48.472Z,5.77
2018-01-29T00:11:52.371Z,5.78
2018-01-29T00:11:56.369Z,5.78
2018-01-29T00:12:00.254Z,5.78
2018-01-29T00:12:04.256Z,5.78
2018-01-29T00:12:07.935Z,5.78
2018-01-29T00:12:11.938Z,5.78
2018-01-29T00:12:16.038Z,5.8
2018-01-29T00:12:19.934Z,5.79
2018-01-29T00:12:23.720Z,5.79
2018-01-29T00:12:27.516Z,5.8
2018-01-29T00:12:31.460Z,5.8
2018-01-29T00:12:35.243Z,5.8
2018-01-29T00:12:39.036Z,5.81
2018-01-29T00:12:42.821Z,5.81
2018-01-29T00:12:46.726Z,5.81
2018-01-29T00:12:50.721Z,5.81
2018-01-29T00:12:54.723Z,5.82
2018-01-29T00:12:58.823Z,5.82
2018-01-29T00:13:02.773Z,5.83
2018-01-29T00:13:06.766Z,5.83
2018-01-29T00:13:10.986Z,5.83
2018-01-29T00:13:14.777Z,5.83
2018-01-29T00:13:18.612Z,5.84
2018-01-29T00:13:22.456Z,5.84
2018-01-29T00:13:26.239Z,5.84
2018-01-29T00:13:30.136Z,5.84
2018-01-29T00:13:33.928Z,5.84
2018-01-29T00:13:37.719Z,5.85
2018-01-29T00:13:41.716Z,5.85
2018-01-29T00:13:45.506Z,5.85
2018-01-29T00:13:49.500Z,5.85
2018-01-29T00:13:53.188Z,5.86
2018-01-29T00:13:56.976Z,5.86
2018-01-29T00:14:00.928Z,5.87
2018-01-29T00:14:04.820Z,5.87
2018-01-29T00:14:08.605Z,5.87
2018-01-29T00:14:12.498Z,5.87
2018-01-29T00:14:16.390Z,5.87
2018-01-29T00:14:20.179Z,5.88
2018-01-29T00:14:24.171Z,5.88
2018-01-29T00:14:28.073Z,5.88
2018-01-29T00:14:32.075Z,5.89
2018-01-29T00:14:35.863Z,5.88
2018-01-29T00:14:39.969Z,5.89
2018-01-29T00:14:43.980Z,5.89
2018-01-29T00:14:48.090Z,5.89
2018-01-29T00:14:51.986Z,5.9
2018-01-29T00:14:55.882Z,5.91
2018-01-29T00:14:59.878Z,5.91
2018-01-29T00:15:03.987Z,5.9
2018-01-29T00:15:08.101Z,5.91
2018-01-29T00:15:11.993Z,5.92
2018-01-29T00:15:15.987Z,5.92
2018-01-29T00:15:19.878Z,5.93
2018-01-29T00:15:23.883Z,5.92
2018-01-29T00:15:27.874Z,5.92
2018-01-29T00:15:31.668Z,5.93
2018-01-29T00:15:35.667Z,5.94
2018-01-29T00:15:39.663Z,5.94
2018-01-29T00:15:43.560Z,5.93
2018-01-29T00:15:47.769Z,5.94
2018-01-29T00:15:51.870Z,5.95
2018-01-29T00:15:55.761Z,5.95
2018-01-29T00:15:59.968Z,5.95
2018-01-29T00:16:03.965Z,5.96
2018-01-29T00:16:07.758Z,5.95
2018-01-29T00:16:11.553Z,5.96
2018-01-29T00:16:15.232Z,5.97
2018-01-29T00:16:19.447Z,5.97
2018-01-29T00:16:23.242Z,5.97
2018-01-29T00:16:27.347Z,5.97
2018-01-29T00:16:31.562Z,5.96
2018-01-29T00:16:35.345Z,5.97
2018-01-29T00:16:39.233Z,5.98
2018-01-29T00:16:43.027Z,5.99
2018-01-29T00:16:46.928Z,5.99
2018-01-29T00:16:50.930Z,6
2018-01-29T00:16:54.817Z,5.98
2018-01-29T00:16:59.029Z,5.99
2018-01-29T00:17:03.041Z,6
2018-01-29T00:17:06.830Z,6
2018-01-29T00:17:10.831Z,6
2018-01-29T00:17:14.932Z,6.01
2018-01-29T00:17:18.875Z,6
2018-01-29T00:17:22.775Z,6
2018-01-29T00:17:26.565Z,6.01
2018-01-29T00:17:30.777Z,6.01
2018-01-29T00:17:34.569Z,6.02
2018-01-29T00:17:38.564Z,6.02
2018-01-29T00:17:42.250Z,6.01
2018-01-29T00:17:46.247Z,6.02
2018-01-29T00:17:50.034Z,6.03
2018-01-29T00:17:53.926Z,6.03
2018-01-29T00:17:57.718Z,6.02
2018-01-29T00:18:01.511Z,6.03
2018-01-29T00:18:05.564Z,6.02
2018-01-29T00:18:09.669Z,6.04
2018-01-29T00:18:13.559Z,6.03
2018-01-29T00:18:17.559Z,6.04
2018-01-29T00:18:21.349Z,6.04
2018-01-29T00:18:25.461Z,6.04
2018-01-29T00:18:29.565Z,6.05
2018-01-29T00:18:33.458Z,6.05
2018-01-29T00:18:37.251Z,6.06
2018-01-29T00:18:41.156Z,6.04
2018-01-29T00:18:45.048Z,6.05
2018-01-29T00:18:48.836Z,6.05
2018-01-29T00:18:52.840Z,6.06
2018-01-29T00:18:56.947Z,6.06
2018-01-29T00:19:01.051Z,6.06
2018-01-29T00:19:05.152Z,6.07
2018-01-29T00:19:08.841Z,6.06
2018-01-29T00:19:12.729Z,6.06
2018-01-29T00:19:16.624Z,6.08
2018-01-29T00:19:20.624Z,6.08
2018-01-29T00:19:24.634Z,6.08
2018-01-29T00:19:28.618Z,6.08
2018-01-29T00:19:32.513Z,6.08
2018-01-29T00:19:36.729Z,6.08
2018-01-29T00:19:40.732Z,6.08
2018-01-29T00:19:44.422Z,6.09
2018-01-29T00:19:48.573Z,6.09
2018-01-29T00:19:52.464Z,6.09
2018-01-29T00:19:56.570Z,6.09
2018-01-29T00:20:00.371Z,6.09
2018-01-29T00:20:04.728Z,6.09
2018-01-29T00:20:08.726Z,6.1
2018-01-29T00:20:12.725Z,6.11
2018-01-29T00:20:16.518Z,6.11
2018-01-29T00:20:20.416Z,6.1
2018-01-29T00:20:24.203Z,6.1
2018-01-29T00:20:28.368Z,6.11
2018-01-29T00:20:32.158Z,6.12
2018-01-29T00:20:36.157Z,6.11
2018-01-29T00:20:39.838Z,6.11
2018-01-29T00:20:43.733Z,6.11
2018-01-29T00:20:47.729Z,6.12
2018-01-29T00:20:51.726Z,6.12
2018-01-29T00:20:55.720Z,6.12
2018-01-29T00:20:59.721Z,6.13
2018-01-29T00:21:03.617Z,6.12
2018-01-29T00:21:07.409Z,6.12
2018-01-29T00:21:11.302Z,6.12
2018-01-29T00:21:15.197Z,6.13
2018-01-29T00:21:19.093Z,6.13
2018-01-29T00:21:23.095Z,6.13
2018-01-29T00:21:27.302Z,6.13
2018-01-29T00:21:31.301Z,6.14
2018-01-29T00:21:35.406Z,6.14
2018-01-29T00:21:39.096Z,6.14
2018-01-29T00:21:42.990Z,6.14
2018-01-29T00:21:46.992Z,6.15
2018-01-29T00:21:51.204Z,6.14
2018-01-29T00:21:55.412Z,6.15
2018-01-29T00:21:59.516Z,6.15
2018-01-29T00:22:03.308Z,6.16
2018-01-29T00:22:07.324Z,6.15
2018-01-29T00:22:11.425Z,6.16
2018-01-29T00:22:15.319Z,6.15
2018-01-29T00:22:19.212Z,6.15
2018-01-29T00:22:23.106Z,6.16
2018-01-29T00:22:27.210Z,6.15
2018-01-29T00:22:31.206Z,6.16
2018-01-29T00:22:35.096Z,6.16
2018-01-29T00:22:38.989Z,6.17
2018-01-29T00:22:42.777Z,6.17
2018-01-29T00:22:46.778Z,6.17
2018-01-29T00:22:50.886Z,6.17
2018-01-29T00:22:54.680Z,6.17
2018-01-29T00:22:58.726Z,6.17
2018-01-29T00:23:02.860Z,6.17
2018-01-29T00:23:06.966Z,6.18
2018-01-29T00:23:10.962Z,6.18
2018-01-29T00:23:15.073Z,6.17
2018-01-29T00:23:18.867Z,6.18
2018-01-29T00:23:22.855Z,6.19
2018-01-29T00:23:26.854Z,6.19
2018-01-29T00:23:30.743Z,6.19
2018-01-29T00:23:34.634Z,6.19
2018-01-29T00:23:38.530Z,6.2
2018-01-29T00:23:42.324Z,6.2
2018-01-29T00:23:46.323Z,6.19
2018-01-29T00:23:50.340Z,6.2
2018-01-29T00:23:54.444Z,6.19
2018-01-29T00:23:58.331Z,6.2
2018-01-29T00:24:02.019Z,6.2
2018-01-29T00:24:05.910Z,6.2
2018-01-29T00:24:09.908Z,6.21
2018-01-29T00:24:13.911Z,6.2
2018-01-29T00:24:18.013Z,6.2
2018-01-29T00:24:21.801Z,6.21
2018-01-29T00:24:25.588Z,6.21
2018-01-29T00:24:29.800Z,6.22
2018-01-29T00:24:33.694Z,6.21
2018-01-29T00:24:37.484Z,6.21
2018-01-29T00:24:41.378Z,6.21
2018-01-29T00:24:45.382Z,6.21
2018-01-29T00:24:49.273Z,6.2
2018-01-29T00:24:53.273Z,6.22
2018-01-29T00:24:57.165Z,6.22
2018-01-29T00:25:00.957Z,6.21
2018-01-29T00:25:05.064Z,6.22
2018-01-29T00:25:08.955Z,6.22
2018-01-29T00:25:12.848Z,6.21
2018-01-29T00:25:16.743Z,6.23
2018-01-29T00:25:20.533Z,6.22
2018-01-29T00:25:24.321Z,6.22
2018-01-29T00:25:28.221Z,6.22
2018-01-29T00:25:32.222Z,6.22
2018-01-29T00:25:36.016Z,6.23
2018-01-29T00:25:39.913Z,6.22
2018-01-29T00:25:43.592Z,6.23
2018-01-29T00:25:47.593Z,6.22
2018-01-29T00:25:51.383Z,6.22
2018-01-29T00:25:55.380Z,6.23
2018-01-29T00:25:59.379Z,6.23
2018-01-29T00:26:03.626Z,6.23
2018-01-29T00:26:07.733Z,6.23
2018-01-29T00:26:11.417Z,6.23
2018-01-29T00:26:15.416Z,6.24
2018-01-29T00:26:19.420Z,6.23
2018-01-29T00:26:23.525Z,6.23
2018-01-29T00:26:27.317Z,6.23
2018-01-29T00:26:31.530Z,6.23
2018-01-29T00:26:35.637Z,6.24
2018-01-29T00:26:39.430Z,6.24
2018-01-29T00:26:43.476Z,6.24
2018-01-29T00:26:47.376Z,6.24
2018-01-29T00:26:51.385Z,6.24
2018-01-29T00:26:55.487Z,6.24
2018-01-29T00:26:59.490Z,6.24
2018-01-29T00:27:03.730Z,6.23
2018-01-29T00:27:07.627Z,6.24
2018-01-29T00:27:11.417Z,6.25
2018-01-29T00:27:15.308Z,6.24
2018-01-29T00:27:19.315Z,6.24
2018-01-29T00:27:23.206Z,6.25
2018-01-29T00:27:27.092Z,6.25
2018-01-29T00:27:30.983Z,6.25
2018-01-29T00:27:35.197Z,6.25
2018-01-29T00:27:39.212Z,6.25
2018-01-29T00:27:43.002Z,6.24
2018-01-29T00:27:46.899Z,6.24
2018-01-29T00:27:50.942Z,6.25
2018-01-29T00:27:54.832Z,6.24
2018-01-29T00:27:58.740Z,6.24
2018-01-29T00:28:02.736Z,6.25
2018-01-29T00:28:06.527Z,6.24
2018-01-29T00:28:10.320Z,6.25
2018-01-29T00:28:14.577Z,6.25
2018-01-29T00:28:18.364Z,6.24
2018-01-29T00:28:22.261Z,6.24
2018-01-29T00:28:26.268Z,6.26
2018-01-29T00:28:30.263Z,6.24
2018-01-29T00:28:34.159Z,6.25
2018-01-29T00:28:38.154Z,6.26
2018-01-29T00:28:42.260Z,6.25
2018-01-29T00:28:46.051Z,6.25
2018-01-29T00:28:49.839Z,6.25
2018-01-29T00:28:53.625Z,6.24
2018-01-29T00:28:57.416Z,6.25
2018-01-29T00:29:01.428Z,6.25
2018-01-29T00:29:05.624Z,6.25
2018-01-29T00:29:09.414Z,6.25
2018-01-29T00:29:13.308Z,6.25
2018-01-29T00:29:17.099Z,6.25
2018-01-29T00:29:21.115Z,6.25
2018-01-29T00:29:24.802Z,6.25
2018-01-29T00:29:28.702Z,6.25
2018-01-29T00:29:32.809Z,6.26
2018-01-29T00:29:36.703Z,6.27
2018-01-29T00:29:40.717Z,6.25
2018-01-29T00:29:44.395Z,6.25
2018-01-29T00:29:48.185Z,6.26
2018-01-29T00:29:52.080Z,6.26
2018-01-29T00:29:56.076Z,6.26
2018-01-29T00:29:59.875Z,6.25
2018-01-29T00:30:03.967Z,6.26
2018-01-29T00:30:07.980Z,6.26
2018-01-29T00:30:12.087Z,6.25
2018-01-29T00:30:15.979Z,6.26
2018-01-29T00:30:20.089Z,6.26
2018-01-29T00:30:23.983Z,6.27
2018-01-29T00:30:27.982Z,6.26
2018-01-29T00:30:31.983Z,6.26
2018-01-29T00:30:35.768Z,6.25
2018-01-29T00:30:39.665Z,6.27
2018-01-29T00:30:43.668Z,6.27
2018-01-29T00:30:47.684Z,6.27
2018-01-29T00:30:51.474Z,6.27
2018-01-29T00:30:55.477Z,6.27
2018-01-29T00:31:31.473Z,6.28
2018-01-29T00:31:35.578Z,6.26
2018-01-29T00:31:39.591Z,6.27
2018-01-29T00:31:43.380Z,6.27
2018-01-29T00:31:47.483Z,6.28
2018-01-29T00:31:51.483Z,6.28
2018-01-29T00:31:55.486Z,6.27
2018-01-29T00:31:59.382Z,6.28
2018-01-29T00:32:03.384Z,6.27
2018-01-29T00:32:07.281Z,6.27
2018-01-29T00:32:11.282Z,6.27
2018-01-29T00:32:15.282Z,6.27
2018-01-29T00:32:19.072Z,6.28
2018-01-29T00:32:22.861Z,6.28
2018-01-29T00:32:26.646Z,6.29
2018-01-29T00:32:30.434Z,6.28
2018-01-29T00:32:34.541Z,6.29
2018-01-29T00:32:38.440Z,6.28
2018-01-29T00:32:42.238Z,6.29
2018-01-29T00:32:46.139Z,6.29
2018-01-29T00:32:50.150Z,6.29
2018-01-29T00:32:54.142Z,6.29
2018-01-29T00:32:57.933Z,6.29
2018-01-29T00:33:01.972Z,6.3
2018-01-29T00:33:05.866Z,6.3
2018-01-29T00:33:09.761Z,6.3
2018-01-29T00:33:13.546Z,6.29
2018-01-29T00:33:17.231Z,6.3
2018-01-29T00:33:21.025Z,6.3
2018-01-29T00:33:24.816Z,6.3
2018-01-29T00:33:28.920Z,6.29
2018-01-29T00:33:32.816Z,6.3
2018-01-29T00:33:36.918Z,6.31
2018-01-29T00:33:40.920Z,6.31
2018-01-29T00:33:44.811Z,6.31
2018-01-29T00:33:48.712Z,6.31
2018-01-29T00:33:52.495Z,6.3
2018-01-29T00:33:56.283Z,6.31
2018-01-29T00:34:00.174Z,6.31
2018-01-29T00:34:04.180Z,6.3
2018-01-29T00:34:07.864Z,6.31
2018-01-29T00:34:11.652Z,6.31
2018-01-29T00:34:15.550Z,6.31
2018-01-29T00:34:19.341Z,6.32
2018-01-29T00:34:23.444Z,6.31
2018-01-29T00:34:27.339Z,6.31
2018-01-29T00:34:31.450Z,6.31
2018-01-29T00:34:35.245Z,6.31
2018-01-29T00:34:39.038Z,6.31
2018-01-29T00:34:42.932Z,6.31
2018-01-29T00:34:46.720Z,6.32
2018-01-29T00:34:50.511Z,6.31
2018-01-29T00:34:54.627Z,6.32
2018-01-29T00:34:58.628Z,6.31
2018-01-29T00:35:02.467Z,6.31
2018-01-29T00:35:06.360Z,6.31
2018-01-29T00:35:10.149Z,6.32
2018-01-29T00:35:14.039Z,6.32
2018-01-29T00:35:17.721Z,6.32
2018-01-29T00:35:21.825Z,6.32
2018-01-29T00:35:25.514Z,6.33
2018-01-29T00:35:29.405Z,6.33
2018-01-29T00:35:33.401Z,6.32
2018-01-29T00:35:37.299Z,6.32
2018-01-29T00:35:41.194Z,6.33
2018-01-29T00:35:45.098Z,6.33
2018-01-29T00:35:48.877Z,6.32
2018-01-29T00:35:52.767Z,6.33
2018-01-29T00:35:56.556Z,6.33
2018-01-29T00:36:00.347Z,6.33
2018-01-29T00:36:04.343Z,6.33
2018-01-29T00:36:08.549Z,6.33
2018-01-29T00:36:12.654Z,6.34
2018-01-29T00:36:16.758Z,6.33
2018-01-29T00:36:20.761Z,6.34
2018-01-29T00:36:24.442Z,6.33
2018-01-29T00:36:28.440Z,6.35
2018-01-29T00:36:32.652Z,6.34
2018-01-29T00:36:36.653Z,6.35
2018-01-29T00:36:40.439Z,6.35
2018-01-29T00:36:44.445Z,6.35
2018-01-29T00:36:48.447Z,6.34
2018-01-29T00:36:52.346Z,6.35
2018-01-29T00:36:56.134Z,6.35
2018-01-29T00:37:00.347Z,6.35
2018-01-29T00:37:04.240Z,6.35
2018-01-29T00:37:08.133Z,6.36
2018-01-29T00:37:11.816Z,6.36
2018-01-29T00:37:15.872Z,6.36
2018-01-29T00:37:19.557Z,6.36
2018-01-29T00:37:23.446Z,6.36
2018-01-29T00:37:27.129Z,6.37
2018-01-29T00:37:30.925Z,6.36
2018-01-29T00:37:34.827Z,6.36
2018-01-29T00:37:38.720Z,6.37
2018-01-29T00:37:42.506Z,6.37
2018-01-29T00:37:46.504Z,6.37
2018-01-29T00:37:50.400Z,6.37
2018-01-29T00:37:54.398Z,6.37
2018-01-29T00:37:58.192Z,6.37
2018-01-29T00:38:02.334Z,6.38
2018-01-29T00:38:06.223Z,6.38
2018-01-29T00:38:10.217Z,6.38
2018-01-29T00:38:14.216Z,6.38
2018-01-29T00:38:18.368Z,6.38
2018-01-29T00:38:22.266Z,6.38
2018-01-29T00:38:26.160Z,6.39
2018-01-29T00:38:30.048Z,6.38
2018-01-29T00:38:34.154Z,6.38
2018-01-29T00:38:38.163Z,6.39
2018-01-29T00:38:42.053Z,6.39
2018-01-29T00:38:46.163Z,6.39
2018-01-29T00:38:49.950Z,6.39
2018-01-29T00:38:53.746Z,6.39
2018-01-29T00:38:57.640Z,6.4
2018-01-29T00:39:01.431Z,6.4
2018-01-29T00:39:05.422Z,6.4
2018-01-29T00:39:09.433Z,6.41
2018-01-29T00:39:13.322Z,6.4
2018-01-29T00:39:17.320Z,6.41
2018-01-29T00:39:21.006Z,6.41
2018-01-29T00:39:24.792Z,6.41
2018-01-29T00:39:28.588Z,6.41
2018-01-29T00:39:32.587Z,6.41
2018-01-29T00:39:36.480Z,6.42
2018-01-29T00:39:40.379Z,6.42
2018-01-29T00:39:44.314Z,6.42
2018-01-29T00:39:48.208Z,6.42
2018-01-29T00:39:52.215Z,6.43
2018-01-29T00:39:56.004Z,6.42
2018-01-29T00:39:59.892Z,6.43
2018-01-29T00:40:03.906Z,6.43
2018-01-29T00:40:07.908Z,6.43
2018-01-29T00:40:11.852Z,6.42
2018-01-29T00:40:15.745Z,6.43
2018-01-29T00:40:19.535Z,6.43
2018-01-29T00:40:23.426Z,6.44
2018-01-29T00:40:27.528Z,6.43
2018-01-29T00:40:31.527Z,6.44
2018-01-29T00:40:35.422Z,6.44
2018-01-29T00:40:39.315Z,6.43
2018-01-29T00:40:43.001Z,6.44
2018-01-29T00:40:47.208Z,6.45
2018-01-29T00:40:51.100Z,6.44
2018-01-29T00:40:55.096Z,6.44
2018-01-29T00:40:59.095Z,6.45
2018-01-29T00:41:03.128Z,6.45
2018-01-29T00:41:06.813Z,6.45
2018-01-29T00:41:10.814Z,6.45
2018-01-29T00:41:14.709Z,6.46
2018-01-29T00:41:18.395Z,6.46
2018-01-29T00:41:22.187Z,6.46
2018-01-29T00:41:25.872Z,6.46
2018-01-29T00:41:29.984Z,6.46
2018-01-29T00:41:33.877Z,6.47
2018-01-29T00:41:37.671Z,6.47
2018-01-29T00:41:41.455Z,6.47
2018-01-29T00:41:45.451Z,6.47
2018-01-29T00:41:49.444Z,6.46
2018-01-29T00:41:53.558Z,6.48
2018-01-29T00:41:57.556Z,6.48
2018-01-29T00:42:01.675Z,6.48
2018-01-29T00:42:05.666Z,6.48
2018-01-29T00:42:09.562Z,6.48
2018-01-29T00:42:13.560Z,6.49
2018-01-29T00:42:17.347Z,6.48
2018-01-29T00:42:21.239Z,6.48
2018-01-29T00:42:25.134Z,6.49
2018-01-29T00:42:29.031Z,6.48
2018-01-29T00:42:33.129Z,6.49
2018-01-29T00:42:37.125Z,6.49
2018-01-29T00:42:41.020Z,6.49
2018-01-29T00:42:44.705Z,6.49
2018-01-29T00:42:48.595Z,6.49
2018-01-29T00:42:52.379Z,6.49
2018-01-29T00:42:56.273Z,6.5
2018-01-29T00:43:00.066Z,6.49
2018-01-29T00:43:03.863Z,6.5
2018-01-29T00:43:08.017Z,6.5
2018-01-29T00:43:12.017Z,6.51
2018-01-29T00:43:15.804Z,6.5
2018-01-29T00:43:19.910Z,6.5
2018-01-29T00:43:23.908Z,6.51
2018-01-29T00:43:27.805Z,6.51
2018-01-29T00:43:31.805Z,6.51
2018-01-29T00:43:35.702Z,6.51
2018-01-29T00:43:39.595Z,6.51
2018-01-29T00:43:43.486Z,6.5
2018-01-29T00:43:47.166Z,6.51
2018-01-29T00:43:51.057Z,6.51
2018-01-29T00:43:55.158Z,6.51
2018-01-29T00:43:59.152Z,6.51
2018-01-29T00:44:03.241Z,6.5
2018-01-29T00:44:07.026Z,6.51
2018-01-29T00:44:11.018Z,6.51
2018-01-29T00:44:15.017Z,6.51
2018-01-29T00:44:19.117Z,6.51
2018-01-29T00:44:22.802Z,6.52
2018-01-29T00:44:26.700Z,6.51
2018-01-29T00:44:30.709Z,6.52
2018-01-29T00:44:34.819Z,6.52
2018-01-29T00:44:38.716Z,6.52
2018-01-29T00:44:42.501Z,6.52
2018-01-29T00:44:46.500Z,6.52
2018-01-29T00:44:50.289Z,6.52
2018-01-29T00:44:54.398Z,6.52
2018-01-29T00:44:58.294Z,6.52
2018-01-29T00:45:02.131Z,6.53
2018-01-29T00:45:06.025Z,6.52
2018-01-29T00:45:09.808Z,6.53
2018-01-29T00:45:13.910Z,6.54
2018-01-29T00:45:17.698Z,6.53
2018-01-29T00:45:21.588Z,6.53
2018-01-29T00:45:25.481Z,6.54
2018-01-29T00:45:29.481Z,6.54
2018-01-29T00:45:33.476Z,6.53
2018-01-29T00:45:37.476Z,6.54
2018-01-29T00:45:41.369Z,6.53
2018-01-29T00:45:45.151Z,6.54
2018-01-29T00:45:49.148Z,6.53
2018-01-29T00:45:52.938Z,6.54
2018-01-29T00:45:56.727Z,6.55
2018-01-29T00:46:00.521Z,6.55
2018-01-29T00:46:04.516Z,6.54
2018-01-29T00:46:08.407Z,6.55
2018-01-29T00:46:12.515Z,6.54
2018-01-29T00:46:16.518Z,6.55
2018-01-29T00:46:20.310Z,6.55
2018-01-29T00:46:24.215Z,6.55
2018-01-29T00:46:28.219Z,6.56
2018-01-29T00:46:32.004Z,6.56
2018-01-29T00:46:36.007Z,6.56
2018-01-29T00:46:39.906Z,6.55
2018-01-29T00:46:43.702Z,6.56
2018-01-29T00:46:47.916Z,6.56
2018-01-29T00:46:51.923Z,6.56
2018-01-29T00:46:56.029Z,6.56
2018-01-29T00:47:00.030Z,6.56
2018-01-29T00:47:04.024Z,6.57
2018-01-29T00:47:07.815Z,6.56
2018-01-29T00:47:11.604Z,6.57
2018-01-29T00:47:15.508Z,6.57
2018-01-29T00:47:19.294Z,6.58
2018-01-29T00:47:23.075Z,6.58
2018-01-29T00:47:26.758Z,6.57
2018-01-29T00:47:30.751Z,6.57
2018-01-29T00:47:34.436Z,6.58
2018-01-29T00:47:38.229Z,6.58
2018-01-29T00:47:42.017Z,6.58
2018-01-29T00:47:45.919Z,6.58
2018-01-29T00:47:49.709Z,6.59
2018-01-29T00:47:53.603Z,6.59
2018-01-29T00:47:57.396Z,6.59
2018-01-29T00:48:01.748Z,6.59
2018-01-29T00:48:05.745Z,6.59
2018-01-29T00:48:09.956Z,6.6
2018-01-29T00:48:13.851Z,6.59
2018-01-29T00:48:17.743Z,6.6
2018-01-29T00:48:21.640Z,6.59
2018-01-29T00:48:25.420Z,6.59
2018-01-29T00:48:29.422Z,6.6
2018-01-29T00:48:33.641Z,6.6
2018-01-29T00:48:37.641Z,6.61
2018-01-29T00:48:41.540Z,6.61
2018-01-29T00:48:45.456Z,6.61
2018-01-29T00:48:49.135Z,6.61
2018-01-29T00:48:53.133Z,6.6
2018-01-29T00:48:56.920Z,6.62
2018-01-29T00:49:00.706Z,6.62
2018-01-29T00:49:04.505Z,6.62
2018-01-29T00:49:08.297Z,6.62
2018-01-29T00:49:12.296Z,6.62
2018-01-29T00:49:16.192Z,6.64
2018-01-29T00:49:20.094Z,6.64
2018-01-29T00:49:24.102Z,6.64
2018-01-29T00:49:27.999Z,6.64
2018-01-29T00:49:32.097Z,6.65
2018-01-29T00:49:35.883Z,6.63
2018-01-29T00:49:39.879Z,6.64
2018-01-29T00:49:43.565Z,6.65
2018-01-29T00:49:47.476Z,6.65
2018-01-29T00:49:51.376Z,6.65
2018-01-29T00:49:55.265Z,6.65
2018-01-29T00:49:59.162Z,6.65
2018-01-29T00:50:02.952Z,6.66
2018-01-29T00:50:06.740Z,6.66
2018-01-29T00:50:10.528Z,6.66
2018-01-29T00:50:14.743Z,6.66
2018-01-29T00:50:18.848Z,6.66
2018-01-29T00:50:22.851Z,6.67
2018-01-29T00:50:26.953Z,6.66
2018-01-29T00:50:30.958Z,6.67
2018-01-29T00:50:34.962Z,6.67
2018-01-29T00:50:38.856Z,6.67
2018-01-29T00:50:42.757Z,6.67
2018-01-29T00:50:46.544Z,6.68
2018-01-29T00:50:50.439Z,6.68
2018-01-29T00:50:54.444Z,6.68
2018-01-29T00:50:58.797Z,6.68
2018-01-29T00:51:02.802Z,6.68
2018-01-29T00:51:06.704Z,6.68
2018-01-29T00:51:10.605Z,6.68
2018-01-29T00:51:14.710Z,6.69
2018-01-29T00:51:18.817Z,6.69
2018-01-29T00:51:22.609Z,6.7
2018-01-29T00:51:26.399Z,6.69
2018-01-29T00:51:30.509Z,6.7
2018-01-29T00:51:34.189Z,6.7
2018-01-29T00:51:37.979Z,6.69
2018-01-29T00:51:41.876Z,6.7
2018-01-29T00:51:45.878Z,6.69
2018-01-29T00:51:49.766Z,6.7
2018-01-29T00:51:53.450Z,6.7
2018-01-29T00:51:57.652Z,6.71
2018-01-29T00:52:01.662Z,6.71
2018-01-29T00:52:05.497Z,6.71
2018-01-29T00:52:09.608Z,6.72
2018-01-29T00:52:13.511Z,6.71
2018-01-29T00:52:17.295Z,6.72
2018-01-29T00:52:21.406Z,6.72
2018-01-29T00:52:25.197Z,6.73
2018-01-29T00:52:29.208Z,6.72
2018-01-29T00:52:33.210Z,6.72
2018-01-29T00:52:37.265Z,6.72
2018-01-29T00:52:41.163Z,6.73
2018-01-29T00:52:45.157Z,6.73
2018-01-29T00:52:49.045Z,6.73
2018-01-29T00:52:52.839Z,6.73
2018-01-29T00:52:56.842Z,6.74
2018-01-29T00:53:00.736Z,6.74
2018-01-29T00:53:04.632Z,6.73